Atterbury, Illinois
Current Conditions -  °F | °C
As of 10:52 AM on Saturday 20 Dec 2014 (Local Time) from KSPI Reporting Station
Overcast Overcast  
Wind Chill: 29°   Ceiling: 2600
Heat Index: 36°   Visibility: 10mi
Dew Point: 27°   Wind: 9mph
Humidity: 70%   Direction: 150°SSE
Pressure: 30.29"   Gusts: NA
Location:  40.0452°N, 89.8548°W
Report Text: KSPI 201652Z 15008KT 10SM OVC026 02/M03 A3029 RMK AO2 SLP261 T00221028
Loading
Personal Weather Stations






























Interactive Weather Map New forecast layout! Learn more

10-Day Weather Forecast

Advertisements
Track Severe Weather on mobile